sim
Sign-in with your pilot id or email,
or register
Callsign
Passwort

Schedule Details

Flight Number: OEO1639
Departure: Malmo Airport (ESMS) at 13:55
Arrival: Munich Airport (EDDM) at 15:35

Weather Information
Getting current METAR information for ESMS 240350Z 14008KT 6000 BR NSC 15/14 Q0999
Getting current METAR information for EDDM 240350Z VRB01KT CAVOK 10/10 Q1009 NOSIG

Schedule Frequency

Route Map